Time;durP1;ratioP1;P1;durP2;ratioP2;P2;SDS_P1;SDS_P2;PMS_P1;PMS_P2;Temp;Humidity;BMP_temperature;BMP_pressure;BME280_temperature;BME280_humidity;BME280_pressure;Samples;Min_cycle;Max_cycle;Signal;HPM_P1;HPM_P2
2023/06/19 00:01:15;;;;;;;;;;;;;;;15.07;86.64;99186.50;4277293;33;34370;-74
2023/06/19 00:03:43;;;;;;;;;;;;;;;14.69;90.22;99191.19;4290287;33;35049;-79
2023/06/19 00:06:12;;;;;;;;;;;;;;;15.02;88.15;99188.41;4289969;33;36215;-75
2023/06/19 00:08:43;;;;;;;;;;;;;;;15.02;88.68;99191.94;4277457;33;35605;-71
2023/06/19 00:11:11;;;;;;;;;;;;;;;15.51;85.82;99184.22;4290140;33;34378;-78
2023/06/19 00:13:39;;;;;;;;;;;;;;;15.38;87.02;99180.28;4277012;33;33039;-74
2023/06/19 00:16:07;;;;;;;;;;;;;;;15.30;86.62;99189.28;4276834;33;33762;-73
2023/06/19 00:18:39;;;;;;;;;;;;;;;15.61;84.57;99188.25;4277130;33;34804;-76
2023/06/19 00:21:08;;;;;;;;;;;;;;;15.83;83.32;99184.91;4290332;33;33754;-72
2023/06/19 00:23:37;;;;;;;;;;;;;;;15.80;83.03;99192.91;4277303;33;34954;-74
2023/06/19 00:26:04;;;;;;;;;;;;;;;15.61;83.27;99183.00;4276848;33;35991;-75
2023/06/19 00:28:32;;;;;;;;;;;;;;;14.99;86.56;99186.78;4289888;33;34744;-79
2023/06/19 00:31:00;;;;;;;;;;;;;;;15.36;85.50;99189.06;4290049;33;34372;-75
2023/06/19 00:33:29;;;;;;;;;;;;;;;14.92;88.57;99188.72;4288572;33;34302;-75
2023/06/19 00:35:56;;;;;;;;;;;;;;;15.27;87.25;99186.75;4290060;33;36138;-73
2023/06/19 00:38:24;;;;;;;;;;;;;;;15.27;87.02;99193.78;4276694;33;33980;-73
2023/06/19 00:40:52;;;;;;;;;;;;;;;15.65;85.46;99184.63;4290174;33;33591;-72
2023/06/19 00:43:20;;;;;;;;;;;;;;;15.62;84.32;99182.09;4289780;33;34950;-73
2023/06/19 00:45:48;;;;;;;;;;;;;;;15.44;85.80;99183.59;4289009;33;35334;-73
2023/06/19 00:48:15;;;;;;;;;;;;;;;15.10;86.80;99186.44;4289859;33;35631;-72
2023/06/19 00:50:44;;;;;;;;;;;;;;;15.23;85.56;99179.91;4289752;33;34545;-75
2023/06/19 00:53:12;;;;;;;;;;;;;;;15.16;85.38;99187.09;4289859;33;34203;-76
2023/06/19 00:55:39;;;;;;;;;;;;;;;14.96;87.48;99185.13;4289965;33;36047;-71
2023/06/19 00:58:08;;;;;;;;;;;;;;;15.10;88.08;99181.19;4276673;33;33849;-76
2023/06/19 01:00:36;;;;;;;;;;;;;;;15.85;82.77;99186.59;4277047;33;34342;-73
2023/06/19 01:03:04;;;;;;;;;;;;;;;15.94;81.35;99177.53;4289851;33;34020;-74
2023/06/19 01:05:33;;;;;;;;;;;;;;;15.60;82.44;99180.41;4289511;33;35787;-74
2023/06/19 01:08:07;;;;;;;;;;;;;;;15.22;87.14;99186.03;4289575;33;35655;-72
2023/06/19 01:10:36;;;;;;;;;;;;;;;15.60;85.28;99176.06;4289664;33;33609;-76
2023/06/19 01:13:09;;;;;;;;;;;;;;;15.31;85.60;99180.47;4276652;33;33334;-75
2023/06/19 01:15:37;;;;;;;;;;;;;;;14.58;91.41;99171.41;4276610;33;36213;-76
2023/06/19 01:18:05;;;;;;;;;;;;;;;14.69;90.86;99181.56;4289401;33;35781;-75
2023/06/19 01:20:33;;;;;;;;;;;;;;;15.04;89.19;99176.16;4289518;33;33836;-74
2023/06/19 01:23:10;;;;;;;;;;;;;;;15.27;88.20;99181.50;4289444;33;35109;-75
2023/06/19 01:25:39;;;;;;;;;;;;;;;15.24;88.40;99180.75;4276586;33;35168;-74
2023/06/19 01:28:09;;;;;;;;;;;;;;;15.48;86.31;99179.09;4276310;33;35417;-77
2023/06/19 01:30:37;;;;;;;;;;;;;;;15.03;87.23;99177.03;4289427;33;33615;-72
2023/06/19 01:33:15;;;;;;;;;;;;;;;15.31;87.04;99174.38;4276445;33;34965;-76
2023/06/19 01:35:42;;;;;;;;;;;;;;;15.39;86.09;99172.38;4276218;33;33551;-75
2023/06/19 01:38:10;;;;;;;;;;;;;;;15.75;84.17;99168.59;4289028;33;34680;-72
2023/06/19 01:40:38;;;;;;;;;;;;;;;15.98;82.90;99159.91;4289130;33;33534;-74
2023/06/19 01:43:06;;;;;;;;;;;;;;;15.14;86.66;99156.56;4276234;33;34322;-75
2023/06/19 01:45:34;;;;;;;;;;;;;;;14.71;91.55;99164.03;4275897;33;34638;-75
2023/06/19 01:48:02;;;;;;;;;;;;;;;14.94;89.35;99160.69;4276213;33;35555;-74
2023/06/19 01:50:30;;;;;;;;;;;;;;;14.90;90.45;99158.22;4276241;33;33627;-75
2023/06/19 01:52:58;;;;;;;;;;;;;;;14.92;90.97;99156.41;4275883;33;32399;-75
2023/06/19 01:55:25;;;;;;;;;;;;;;;14.91;90.76;99150.31;4288911;33;35103;-72
2023/06/19 01:57:53;;;;;;;;;;;;;;;14.98;89.73;99156.19;4289851;33;35617;-73
2023/06/19 02:00:21;;;;;;;;;;;;;;;15.31;85.55;99156.03;4291003;33;34431;-71
2023/06/19 02:02:50;;;;;;;;;;;;;;;15.48;83.97;99158.09;4278086;33;35058;-72
2023/06/19 02:05:18;;;;;;;;;;;;;;;14.76;89.25;99156.03;4290973;33;36214;-73
2023/06/19 02:07:45;;;;;;;;;;;;;;;14.98;86.57;99158.81;4290755;33;34789;-74
2023/06/19 02:10:15;;;;;;;;;;;;;;;15.09;85.09;99153.25;4290830;33;34414;-72
2023/06/19 02:12:43;;;;;;;;;;;;;;;14.90;86.79;99164.31;4290859;33;34302;-72
2023/06/19 02:15:10;;;;;;;;;;;;;;;14.86;86.56;99162.72;4290726;33;35710;-74
2023/06/19 02:17:39;;;;;;;;;;;;;;;14.25;89.84;99167.12;4290821;33;35473;-71
2023/06/19 02:20:08;;;;;;;;;;;;;;;14.62;89.60;99159.06;4290823;33;33730;-72
2023/06/19 02:22:37;;;;;;;;;;;;;;;15.01;85.68;99176.25;4278009;33;34929;-72
2023/06/19 02:25:05;;;;;;;;;;;;;;;14.90;85.84;99168.72;4277882;33;36195;-72
2023/06/19 02:27:33;;;;;;;;;;;;;;;15.01;85.35;99163.13;4277949;33;34793;-72
2023/06/19 02:30:01;;;;;;;;;;;;;;;14.45;89.06;99171.78;4290920;33;33667;-73
2023/06/19 02:32:30;;;;;;;;;;;;;;;14.75;87.62;99167.41;4290980;33;34054;-73
2023/06/19 02:34:58;;;;;;;;;;;;;;;14.93;85.46;99158.09;4290700;33;35226;-73
2023/06/19 02:37:26;;;;;;;;;;;;;;;14.22;89.64;99161.06;4290418;33;34745;-72
2023/06/19 02:39:54;;;;;;;;;;;;;;;14.56;88.40;99161.84;4290716;33;33498;-72
2023/06/19 02:42:22;;;;;;;;;;;;;;;14.79;87.04;99163.81;4290609;33;34200;-72
2023/06/19 02:44:50;;;;;;;;;;;;;;;14.68;87.11;99173.75;4290598;33;35421;-72
2023/06/19 02:47:17;;;;;;;;;;;;;;;14.54;88.42;99163.63;4290793;33;35382;-74
2023/06/19 02:49:45;;;;;;;;;;;;;;;14.27;88.87;99157.44;4290596;33;34455;-73
2023/06/19 02:52:13;;;;;;;;;;;;;;;13.93;93.12;99168.88;4289511;33;34321;-72
2023/06/19 02:54:42;;;;;;;;;;;;;;;14.60;89.14;99174.81;4290517;33;35287;-73
2023/06/19 02:57:10;;;;;;;;;;;;;;;14.27;91.15;99168.78;4277869;33;34718;-72
2023/06/19 02:59:38;;;;;;;;;;;;;;;14.73;89.66;99177.09;4289438;33;33454;-72
2023/06/19 03:02:05;;;;;;;;;;;;;;;14.57;90.60;99172.25;4290642;33;34112;-73
2023/06/19 03:04:34;;;;;;;;;;;;;;;14.88;90.60;99176.63;4290575;33;35425;-73
2023/06/19 03:07:02;;;;;;;;;;;;;;;15.01;90.26;99171.00;4290641;33;35494;-72
2023/06/19 03:09:30;;;;;;;;;;;;;;;15.21;90.10;99172.97;4290098;33;34613;-73
2023/06/19 03:11:58;;;;;;;;;;;;;;;15.11;91.60;99177.66;4290420;33;34852;-73
2023/06/19 03:14:26;;;;;;;;;;;;;;;15.26;90.57;99174.53;4290695;33;36120;-73
2023/06/19 03:16:53;;;;;;;;;;;;;;;15.61;89.67;99166.41;4290392;33;35464;-71
2023/06/19 03:19:22;;;;;;;;;;;;;;;15.30;92.29;99172.66;4277737;33;33570;-72
2023/06/19 03:21:50;;;;;;;;;;;;;;;15.77;90.88;99175.50;4290686;33;34120;-73
2023/06/19 03:24:18;;;;;;;;;;;;;;;15.34;96.23;99180.38;4290569;33;35374;-73
2023/06/19 03:26:47;;;;;;;;;;;;;;;16.04;91.67;99173.69;4290575;33;35563;-75
2023/06/19 03:29:15;;;;;;;;;;;;;;;15.86;92.96;99172.53;4290612;33;33789;-75
2023/06/19 03:31:44;;;;;;;;;;;;;;;15.80;94.21;99171.91;4290638;33;34755;-74
2023/06/19 03:34:12;;;;;;;;;;;;;;;15.87;94.23;99178.66;4289124;33;35411;-75
2023/06/19 03:36:39;;;;;;;;;;;;;;;16.08;92.73;99177.06;4290374;33;34748;-75
2023/06/19 03:39:07;;;;;;;;;;;;;;;16.12;93.20;99179.50;4290282;33;34397;-75
2023/06/19 03:41:36;;;;;;;;;;;;;;;16.33;92.17;99184.87;4277855;33;34902;-75
2023/06/19 03:44:04;;;;;;;;;;;;;;;16.32;88.57;99183.16;4290317;33;36099;-75
2023/06/19 03:46:31;;;;;;;;;;;;;;;16.49;89.16;99183.41;4290494;33;34774;-74
2023/06/19 03:48:59;;;;;;;;;;;;;;;16.30;91.75;99188.47;4277429;33;34241;-75
2023/06/19 03:51:28;;;;;;;;;;;;;;;16.69;89.14;99194.94;4290315;33;35017;-75
2023/06/19 03:53:56;;;;;;;;;;;;;;;16.78;89.23;99191.97;4277364;33;35153;-72
2023/06/19 03:56:24;;;;;;;;;;;;;;;16.87;87.73;99188.13;4290491;33;34646;-73
2023/06/19 03:58:52;;;;;;;;;;;;;;;17.08;87.86;99181.16;4290202;33;34214;-75
2023/06/19 04:01:20;;;;;;;;;;;;;;;16.97;89.28;99189.50;4290258;33;33910;-74
2023/06/19 04:03:48;;;;;;;;;;;;;;;16.79;85.73;99187.56;4290334;33;35461;-75
2023/06/19 04:06:16;;;;;;;;;;;;;;;16.80;88.38;99187.50;4290212;33;35529;-76
2023/06/19 04:08:44;;;;;;;;;;;;;;;17.29;87.38;99189.12;4290357;33;33741;-75
2023/06/19 04:11:12;;;;;;;;;;;;;;;17.25;87.48;99186.59;4290305;33;34237;-76
2023/06/19 04:13:39;;;;;;;;;;;;;;;17.58;85.65;99198.47;4290382;33;35170;-75
2023/06/19 04:16:07;;;;;;;;;;;;;;;17.64;85.78;99195.56;4290148;33;34826;-75
2023/06/19 04:18:35;;;;;;;;;;;;;;;17.91;83.47;99190.94;4277295;33;34350;-76
2023/06/19 04:21:04;;;;;;;;;;;;;;;18.16;82.14;99197.78;4289025;33;35092;-75
2023/06/19 04:23:32;;;;;;;;;;;;;;;18.25;81.62;99194.72;4277072;33;35518;-76
2023/06/19 04:26:00;;;;;;;;;;;;;;;18.32;80.16;99187.41;4288839;33;34780;-75
2023/06/19 04:28:27;;;;;;;;;;;;;;;18.47;77.71;99191.13;4277008;33;34346;-75
2023/06/19 04:31:00;;;;;;;;;;;;;;;18.06;81.19;99196.47;4290014;33;34071;-75
2023/06/19 04:33:29;;;;;;;;;;;;;;;18.29;79.26;99195.44;4276857;33;33683;-75
2023/06/19 04:35:57;;;;;;;;;;;;;;;18.14;80.11;99192.56;4276821;33;33215;-75
2023/06/19 04:38:24;;;;;;;;;;;;;;;18.31;80.30;99193.59;4289739;33;33520;-75
2023/06/19 04:40:53;;;;;;;;;;;;;;;18.09;80.78;99201.56;4289820;33;34308;-75
2023/06/19 04:43:20;;;;;;;;;;;;;;;17.81;81.72;99192.22;4276965;33;35998;-75
2023/06/19 04:45:48;;;;;;;;;;;;;;;18.15;84.71;99198.69;4289790;33;34888;-75
2023/06/19 04:48:16;;;;;;;;;;;;;;;18.54;82.72;99196.03;4276953;33;33752;-75
2023/06/19 04:50:44;;;;;;;;;;;;;;;18.75;81.11;99196.81;4289855;33;34226;-75
2023/06/19 04:53:11;;;;;;;;;;;;;;;19.22;79.30;99194.66;4276754;33;34322;-75
2023/06/19 04:55:39;;;;;;;;;;;;;;;19.48;77.08;99191.63;4289752;33;34304;-75
2023/06/19 04:58:07;;;;;;;;;;;;;;;19.81;74.61;99187.38;4289797;33;33728;-74
2023/06/19 05:00:35;;;;;;;;;;;;;;;19.71;74.51;99200.16;4289736;33;34198;-75
2023/06/19 05:03:03;;;;;;;;;;;;;;;20.12;73.13;99202.50;4289578;33;35363;-75
2023/06/19 05:05:30;;;;;;;;;;;;;;;20.06;76.40;99208.09;4276663;33;33864;-74
2023/06/19 05:07:59;;;;;;;;;;;;;;;20.40;74.39;99206.31;4276397;33;32858;-74
2023/06/19 05:10:27;;;;;;;;;;;;;;;20.60;73.08;99214.03;4276723;33;34090;-74
2023/06/19 05:12:55;;;;;;;;;;;;;;;20.74;74.06;99215.13;4289498;33;36229;-75
2023/06/19 05:15:23;;;;;;;;;;;;;;;21.09;72.39;99214.94;4289427;33;34610;-75
2023/06/19 05:17:51;;;;;;;;;;;;;;;21.23;67.68;99209.75;4276541;33;33645;-75
2023/06/19 05:20:19;;;;;;;;;;;;;;;21.68;66.05;99212.50;4289439;33;34343;-74
2023/06/19 05:22:46;;;;;;;;;;;;;;;21.83;60.68;99221.34;4289325;33;35430;-75
2023/06/19 05:25:14;;;;;;;;;;;;;;;22.27;65.37;99221.38;4288260;33;34779;-75
2023/06/19 05:27:42;;;;;;;;;;;;;;;22.71;60.94;99220.41;4289365;33;33672;-73
2023/06/19 05:30:10;;;;;;;;;;;;;;;22.49;64.36;99226.19;4289291;33;34258;-76
2023/06/19 05:32:38;;;;;;;;;;;;;;;23.08;61.61;99230.50;4289957;33;35159;-74
2023/06/19 05:35:06;;;;;;;;;;;;;;;23.24;59.74;99233.91;4277875;33;35603;-75
2023/06/19 05:37:34;;;;;;;;;;;;;;;23.43;59.31;99238.00;4290923;33;34353;-75
2023/06/19 05:40:03;;;;;;;;;;;;;;;23.59;53.08;99243.16;4291169;33;34207;-75
2023/06/19 05:42:31;;;;;;;;;;;;;;;23.95;55.30;99239.87;4291040;33;36204;-75
2023/06/19 05:44:59;;;;;;;;;;;;;;;24.17;54.21;99236.59;4291115;33;34691;-76
2023/06/19 05:47:27;;;;;;;;;;;;;;;24.53;53.15;99236.81;4278226;33;34367;-74
2023/06/19 05:49:59;;;;;;;;;;;;;;;24.11;52.49;99237.03;4290979;33;35139;-75
2023/06/19 05:52:28;;;;;;;;;;;;;;;24.71;51.66;99234.72;4278127;33;35371;-76
2023/06/19 05:54:57;;;;;;;;;;;;;;;25.15;49.83;99242.16;4290937;33;34676;-76
2023/06/19 05:57:25;;;;;;;;;;;;;;;25.27;48.43;99236.91;4290923;33;33708;-75
2023/06/19 05:59:53;;;;;;;;;;;;;;;25.56;48.07;99241.94;4277651;33;34481;-75
2023/06/19 06:02:21;;;;;;;;;;;;;;;24.95;48.86;99243.62;4290811;33;35363;-75
2023/06/19 06:04:49;;;;;;;;;;;;;;;25.25;50.34;99249.50;4290892;33;34593;-75
2023/06/19 06:07:17;;;;;;;;;;;;;;;25.30;48.47;99242.03;4278036;33;34428;-73
2023/06/19 06:09:45;;;;;;;;;;;;;;;25.20;51.94;99248.97;4290875;33;35126;-73
2023/06/19 06:12:13;;;;;;;;;;;;;;;25.69;48.39;99250.69;4290804;33;35288;-73
2023/06/19 06:14:41;;;;;;;;;;;;;;;25.59;47.41;99249.69;4290812;33;34934;-76
2023/06/19 06:17:09;;;;;;;;;;;;;;;25.88;48.21;99255.50;4290731;33;33618;-75
2023/06/19 06:19:38;;;;;;;;;;;;;;;26.26;48.49;99249.94;4290848;33;34376;-76
2023/06/19 06:22:06;;;;;;;;;;;;;;;26.47;47.93;99251.88;4290666;33;35205;-77
2023/06/19 06:24:34;;;;;;;;;;;;;;;26.85;46.84;99258.75;4290743;33;35489;-76
2023/06/19 06:27:03;;;;;;;;;;;;;;;26.96;44.91;99264.06;4290725;33;33524;-75
2023/06/19 06:29:30;;;;;;;;;;;;;;;27.16;46.34;99258.94;4290557;33;34111;-76
2023/06/19 06:32:05;;;;;;;;;;;;;;;27.58;45.53;99251.94;4290697;33;34738;-76
2023/06/19 06:34:34;;;;;;;;;;;;;;;27.77;45.71;99259.25;4277569;33;34081;-77
2023/06/19 06:37:02;;;;;;;;;;;;;;;28.01;44.61;99258.22;4277913;33;33624;-76
2023/06/19 06:39:33;;;;;;;;;;;;;;;28.18;43.42;99260.31;4278135;33;33806;-76
2023/06/19 06:42:01;;;;;;;;;;;;;;;27.25;46.89;99260.88;4277693;33;35290;-76
2023/06/19 06:44:29;;;;;;;;;;;;;;;27.82;45.25;99266.06;4289965;33;35401;-75
2023/06/19 06:46:57;;;;;;;;;;;;;;;27.52;46.93;99265.81;4290712;33;34414;-74
2023/06/19 06:49:25;;;;;;;;;;;;;;;27.54;40.60;99263.84;4290558;33;34217;-77
2023/06/19 06:51:53;;;;;;;;;;;;;;;28.27;44.50;99268.53;4290907;33;35257;-75
2023/06/19 06:54:24;;;;;;;;;;;;;;;28.32;44.21;99260.94;4290553;33;34821;-76
2023/06/19 06:56:56;;;;;;;;;;;;;;;28.48;42.49;99269.34;4277597;33;33588;-75
2023/06/19 06:59:25;;;;;;;;;;;;;;;28.98;38.05;99265.06;4290684;33;34136;-76
2023/06/19 07:01:53;;;;;;;;;;;;;;;29.01;37.25;99264.81;4290468;33;35327;-76
2023/06/19 07:04:21;;;;;;;;;;;;;;;28.39;38.33;99270.16;4290670;33;35616;-74
2023/06/19 07:06:49;;;;;;;;;;;;;;;27.68;41.11;99272.56;4290552;33;33786;-76
2023/06/19 07:09:17;;;;;;;;;;;;;;;27.86;39.87;99267.50;4277467;33;34285;-75
2023/06/19 07:11:45;;;;;;;;;;;;;;;27.72;39.42;99266.81;4290447;33;36183;-82
2023/06/19 07:14:13;;;;;;;;;;;;;;;28.64;36.52;99274.25;4277877;33;35609;-76
2023/06/19 07:16:41;;;;;;;;;;;;;;;28.94;37.45;99267.19;4290473;33;33618;-78
2023/06/19 07:19:09;;;;;;;;;;;;;;;29.97;34.66;99259.78;4290386;33;34351;-78
2023/06/19 07:21:38;;;;;;;;;;;;;;;30.10;34.78;99259.47;4277840;33;35295;-76
2023/06/19 07:24:05;;;;;;;;;;;;;;;29.91;38.78;99263.00;4290334;33;35488;-76
2023/06/19 07:26:33;;;;;;;;;;;;;;;28.59;38.90;99270.28;4290424;33;33576;-75
2023/06/19 07:29:01;;;;;;;;;;;;;;;27.62;40.98;99266.75;4277411;33;34279;-77
2023/06/19 07:31:29;;;;;;;;;;;;;;;28.16;41.70;99261.41;4290422;33;35440;-77
2023/06/19 07:33:57;;;;;;;;;;;;;;;29.28;36.09;99257.00;4277430;33;35528;-77
2023/06/19 07:36:25;;;;;;;;;;;;;;;28.57;39.07;99256.16;4290256;33;33518;-76
2023/06/19 07:38:53;;;;;;;;;;;;;;;29.26;38.68;99259.00;4290268;33;34098;-78
2023/06/19 07:41:20;;;;;;;;;;;;;;;28.89;35.71;99248.84;4292075;33;36102;-75
2023/06/19 07:43:49;;;;;;;;;;;;;;;28.97;37.02;99260.72;4304619;33;34919;-75
2023/06/19 07:46:17;;;;;;;;;;;;;;;28.94;36.18;99261.81;4297270;33;34374;-76
2023/06/19 07:48:44;;;;;;;;;;;;;;;28.89;36.73;99262.25;4277203;33;34163;-75
2023/06/19 07:51:13;;;;;;;;;;;;;;;29.19;37.23;99263.22;4290753;33;35404;-75
2023/06/19 07:53:41;;;;;;;;;;;;;;;29.65;38.60;99259.03;4290136;33;34634;-77
2023/06/19 07:56:09;;;;;;;;;;;;;;;30.16;37.27;99251.69;4277165;33;33476;-74
2023/06/19 07:58:37;;;;;;;;;;;;;;;30.01;33.95;99253.94;4277243;33;34282;-75
2023/06/19 08:01:04;;;;;;;;;;;;;;;29.53;35.34;99257.47;4290048;33;36130;-73
2023/06/19 08:03:33;;;;;;;;;;;;;;;29.49;36.62;99262.28;4290042;33;34968;-76
2023/06/19 08:06:00;;;;;;;;;;;;;;;30.09;34.49;99263.13;4277136;33;33603;-74
2023/06/19 08:08:28;;;;;;;;;;;;;;;30.45;38.71;99256.16;4290039;33;34885;-82
2023/06/19 08:10:56;;;;;;;;;;;;;;;31.30;34.35;99256.06;4289896;33;35307;-77
2023/06/19 08:13:24;;;;;;;;;;;;;;;31.67;33.79;99257.81;4289469;33;34619;-76
2023/06/19 08:15:52;;;;;;;;;;;;;;;30.24;35.22;99259.00;4289716;33;33758;-75
2023/06/19 08:18:20;;;;;;;;;;;;;;;30.19;36.36;99253.22;4288837;33;34293;-77
2023/06/19 08:20:49;;;;;;;;;;;;;;;30.08;34.75;99256.06;4277319;33;35379;-79
2023/06/19 08:23:16;;;;;;;;;;;;;;;29.97;35.85;99257.91;4276930;33;34268;-75
2023/06/19 08:25:44;;;;;;;;;;;;;;;29.89;35.66;99265.84;4277197;33;33614;-78
2023/06/19 08:28:12;;;;;;;;;;;;;;;30.14;34.95;99253.63;4289952;33;35241;-77
2023/06/19 08:30:40;;;;;;;;;;;;;;;30.55;36.10;99258.78;4289827;33;35406;-77
2023/06/19 08:33:08;;;;;;;;;;;;;;;31.32;34.80;99254.91;4289871;33;35584;-77
2023/06/19 08:35:36;;;;;;;;;;;;;;;32.02;33.14;99261.47;4289979;33;33452;-79
2023/06/19 08:38:04;;;;;;;;;;;;;;;30.85;35.88;99259.53;4290027;33;35085;-74
2023/06/19 08:40:32;;;;;;;;;;;;;;;30.86;35.74;99258.56;4289799;33;35229;-82
2023/06/19 08:43:00;;;;;;;;;;;;;;;31.55;34.15;99260.75;4277274;33;34568;-80
2023/06/19 08:45:28;;;;;;;;;;;;;;;32.37;32.52;99259.72;4289446;33;33397;-80
2023/06/19 08:47:59;;;;;;;;;;;;;;;32.76;30.79;99259.31;4289902;33;34344;-80
2023/06/19 08:50:27;;;;;;;;;;;;;;;33.13;30.66;99260.81;4277181;33;35295;-81
2023/06/19 08:52:57;;;;;;;;;;;;;;;32.67;31.64;99261.13;4290023;33;34808;-77
2023/06/19 08:55:24;;;;;;;;;;;;;;;32.20;31.01;99256.91;4289642;33;33902;-80
2023/06/19 08:57:53;;;;;;;;;;;;;;;33.11;30.17;99257.41;4276105;33;34324;-75
2023/06/19 09:00:23;;;;;;;;;;;;;;;32.17;31.99;99259.09;4289412;33;36114;-75
2023/06/19 09:02:52;;;;;;;;;;;;;;;32.53;33.26;99251.75;4288488;33;34747;-78
2023/06/19 09:05:25;;;;;;;;;;;;;;;33.38;29.15;99248.25;4249318;33;923665;-77
2023/06/19 09:07:57;;;;;;;;;;;;;;;32.01;33.53;99249.84;4288680;33;34082;-79
2023/06/19 09:10:26;;;;;;;;;;;;;;;31.83;29.87;99257.94;4289396;33;35280;-78
2023/06/19 09:13:01;;;;;;;;;;;;;;;31.63;31.67;99249.19;4289363;33;35531;-79
2023/06/19 09:15:30;;;;;;;;;;;;;;;32.06;31.68;99257.50;4276716;33;33632;-80
2023/06/19 09:18:02;;;;;;;;;;;;;;;31.75;31.00;99257.91;4276988;33;34794;-79
2023/06/19 09:20:32;;;;;;;;;;;;;;;32.81;29.79;99248.91;4289307;33;35466;-73
2023/06/19 09:23:00;;;;;;;;;;;;;;;31.62;32.01;99249.34;4289426;33;35390;-75
2023/06/19 09:25:28;;;;;;;;;;;;;;;31.49;30.78;99245.19;4276299;33;31585;-73
2023/06/19 09:27:57;;;;;;;;;;;;;;;30.91;34.80;99253.56;4276520;33;34370;-74
2023/06/19 09:30:28;;;;;;;;;;;;;;;30.84;33.56;99249.78;4289037;33;35972;-76
2023/06/19 09:33:05;;;;;;;;;;;;;;;31.69;34.17;99247.72;4289510;33;34521;-78
2023/06/19 09:35:33;;;;;;;;;;;;;;;32.72;28.56;99244.44;4276072;33;32717;-77
2023/06/19 09:38:02;;;;;;;;;;;;;;;33.39;29.86;99245.38;4288814;33;34423;-73
2023/06/19 09:40:30;;;;;;;;;;;;;;;33.03;30.44;99244.75;4288928;33;35388;-79
2023/06/19 09:42:59;;;;;;;;;;;;;;;31.91;30.70;99251.81;4276001;33;34786;-74
2023/06/19 09:45:27;;;;;;;;;;;;;;;31.38;32.79;99242.72;4276311;33;34453;-79
2023/06/19 09:47:55;;;;;;;;;;;;;;;32.08;31.96;99240.16;4276038;33;35077;-79
2023/06/19 09:50:27;;;;;;;;;;;;;;;32.96;31.89;99239.16;4288910;33;35313;-78
2023/06/19 09:52:55;;;;;;;;;;;;;;;32.39;29.25;99241.56;4276406;33;35618;-76
2023/06/19 09:55:24;;;;;;;;;;;;;;;32.55;30.21;99236.25;4276277;33;34475;-78
2023/06/19 09:57:53;;;;;;;;;;;;;;;33.04;30.48;99241.88;4275981;33;35151;-79
2023/06/19 10:00:26;;;;;;;;;;;;;;;33.08;28.16;99238.87;4275754;33;35306;-76
2023/06/19 10:02:57;;;;;;;;;;;;;;;32.88;29.01;99225.66;4274218;33;35390;-79
2023/06/19 10:05:30;;;;;;;;;;;;;;;31.84;32.81;99229.19;4276159;33;33335;-75
2023/06/19 10:07:59;;;;;;;;;;;;;;;32.21;29.90;99220.03;4288188;33;34351;-77
2023/06/19 10:10:27;;;;;;;;;;;;;;;32.72;30.29;99222.87;4291101;33;35777;-78
2023/06/19 10:13:14;;;;;;;;;;;;;;;32.82;30.58;99223.59;4280829;33;35500;-77
2023/06/19 10:15:42;;;;;;;;;;;;;;;32.24;30.48;99223.25;4287370;33;34445;-77
2023/06/19 10:18:16;;;;;;;;;;;;;;;32.23;29.97;99216.19;4292334;33;34165;-82
2023/06/19 10:20:44;;;;;;;;;;;;;;;33.44;28.80;99210.66;4284290;33;35282;-78
2023/06/19 10:23:18;;;;;;;;;;;;;;;33.57;28.35;99209.31;4300883;33;34869;-77
2023/06/19 10:25:48;;;;;;;;;;;;;;;32.73;27.74;99208.41;4292714;33;34462;-78
2023/06/19 10:28:16;;;;;;;;;;;;;;;32.13;29.75;99207.38;4287388;33;34978;-80
2023/06/19 10:30:45;;;;;;;;;;;;;;;33.27;28.64;99208.94;4285177;33;35210;-75
2023/06/19 10:33:13;;;;;;;;;;;;;;;32.40;30.90;99209.06;4294632;33;35238;-86
2023/06/19 10:35:41;;;;;;;;;;;;;;;33.34;31.95;99206.38;4302144;33;33632;-82
2023/06/19 10:38:09;;;;;;;;;;;;;;;34.40;27.53;99204.69;4294125;33;35056;-75
2023/06/19 10:40:38;;;;;;;;;;;;;;;34.03;27.51;99204.25;4285014;33;35265;-76
2023/06/19 10:43:06;;;;;;;;;;;;;;;33.58;29.96;99203.72;4300078;33;34750;-77
2023/06/19 10:45:33;;;;;;;;;;;;;;;33.29;29.37;99208.78;4279932;33;34171;-78
2023/06/19 10:48:02;;;;;;;;;;;;;;;33.00;30.08;99205.47;4301686;33;34909;-84
2023/06/19 10:50:35;;;;;;;;;;;;;;;34.21;28.34;99208.66;4283261;33;34587;-79
2023/06/19 10:53:03;;;;;;;;;;;;;;;35.11;25.78;99203.72;4282846;33;34723;-79
2023/06/19 10:55:31;;;;;;;;;;;;;;;34.44;27.87;99198.75;4302115;33;34031;-80
2023/06/19 10:58:02;;;;;;;;;;;;;;;34.86;26.49;99210.31;4294220;33;35013;-85
2023/06/19 11:00:32;;;;;;;;;;;;;;;35.34;25.62;99204.81;4298643;33;36149;-77
2023/06/19 11:03:00;;;;;;;;;;;;;;;34.71;28.97;99210.19;4299391;33;34902;-79
2023/06/19 11:05:28;;;;;;;;;;;;;;;33.44;27.62;99205.25;4291580;33;33722;-75
2023/06/19 11:07:57;;;;;;;;;;;;;;;33.47;25.61;99193.25;4281426;33;33907;-80
2023/06/19 11:10:26;;;;;;;;;;;;;;;34.24;27.63;99189.34;4298762;33;35112;-80
2023/06/19 11:12:55;;;;;;;;;;;;;;;35.11;26.87;99195.59;4298607;33;35776;-79
2023/06/19 11:15:32;;;;;;;;;;;;;;;35.18;25.88;99195.75;4280402;33;34476;-83
2023/06/19 11:18:01;;;;;;;;;;;;;;;35.37;26.63;99197.16;4280485;33;34998;-76
2023/06/19 11:20:30;;;;;;;;;;;;;;;35.13;27.24;99200.84;4298353;33;35223;-78
2023/06/19 11:22:58;;;;;;;;;;;;;;;35.21;25.55;99197.25;4298957;33;34864;-78
2023/06/19 11:25:39;;;;;;;;;;;;;;;34.69;28.82;99194.09;4279933;33;33622;-78
2023/06/19 11:28:13;;;;;;;;;;;;;;;34.65;26.55;99198.19;4280930;33;34293;-76
2023/06/19 11:30:44;;;;;;;;;;;;;;;35.40;24.52;99193.25;4296557;33;36216;-75
2023/06/19 11:33:24;;;;;;;;;;;;;;;33.57;27.44;99188.53;4300418;33;34833;-80
2023/06/19 11:35:53;;;;;;;;;;;;;;;34.24;26.94;99178.53;4280178;33;34491;-88
2023/06/19 11:38:22;;;;;;;;;;;;;;;35.24;25.75;99178.78;4286099;33;33987;-79
2023/06/19 11:40:50;;;;;;;;;;;;;;;35.11;27.87;99178.53;4298022;33;35499;-75
2023/06/19 11:43:30;;;;;;;;;;;;;;;34.02;26.94;99177.41;4293538;33;35548;-76
2023/06/19 11:46:05;;;;;;;;;;;;;;;33.95;29.14;99172.66;4289412;33;32809;-78
2023/06/19 11:48:36;;;;;;;;;;;;;;;34.35;27.98;99165.50;4285177;33;34167;-79
2023/06/19 11:51:04;;;;;;;;;;;;;;;34.89;25.50;99164.81;4286794;33;35997;-77
2023/06/19 11:53:33;;;;;;;;;;;;;;;35.20;24.52;99161.25;4292343;33;34898;-77
2023/06/19 11:56:01;;;;;;;;;;;;;;;34.23;27.74;99166.91;4301095;33;34424;-76
2023/06/19 11:58:29;;;;;;;;;;;;;;;34.65;27.59;99165.72;4295989;33;33837;-78
2023/06/19 12:00:57;;;;;;;;;;;;;;;34.56;28.37;99172.19;4295231;33;36250;-75
2023/06/19 12:03:25;;;;;;;;;;;;;;;34.80;26.86;99173.97;4301514;33;34755;-79
2023/06/19 12:05:53;;;;;;;;;;;;;;;34.61;27.94;99175.22;4291040;33;33610;-81
2023/06/19 12:08:21;;;;;;;;;;;;;;;35.06;26.99;99167.41;4298936;33;34181;-75
2023/06/19 12:10:49;;;;;;;;;;;;;;;33.85;30.41;99157.66;4297648;33;35505;-82
2023/06/19 12:13:17;;;;;;;;;;;;;;;34.92;25.61;99158.19;4280479;33;34895;-79
2023/06/19 12:15:44;;;;;;;;;;;;;;;34.84;27.05;99153.66;4301459;33;33563;-75
2023/06/19 12:18:19;;;;;;;;;;;;;;;33.79;31.19;99153.78;4290162;33;35128;-73
2023/06/19 12:21:07;;;;;;;;;;;;;;;34.11;27.18;99154.75;4299358;33;33778;-74
2023/06/19 12:23:52;;;;;;;;;;;;;;;33.92;26.98;99140.59;4291967;33;34707;-75
2023/06/19 12:26:20;;;;;;;;;;;;;;;33.34;27.30;99144.31;4298694;33;34231;-77
2023/06/19 12:28:48;;;;;;;;;;;;;;;34.75;26.42;99147.47;4296073;33;33593;-75
2023/06/19 12:31:19;;;;;;;;;;;;;;;33.93;29.08;99138.75;4292535;33;35220;-77
2023/06/19 12:33:48;;;;;;;;;;;;;;;34.53;26.94;99140.94;4301379;33;35352;-75
2023/06/19 12:36:16;;;;;;;;;;;;;;;35.26;24.67;99136.16;4294201;33;34289;-77
2023/06/19 12:38:44;;;;;;;;;;;;;;;34.66;27.56;99134.13;4296376;33;34198;-75
2023/06/19 12:41:12;;;;;;;;;;;;;;;34.51;25.99;99128.62;4299475;33;35361;-77
2023/06/19 12:43:39;;;;;;;;;;;;;;;34.75;27.21;99125.81;4291188;33;34822;-76
2023/06/19 12:46:07;;;;;;;;;;;;;;;34.45;26.68;99132.00;4300075;33;33532;-74
2023/06/19 12:48:35;;;;;;;;;;;;;;;34.02;29.44;99126.91;4294920;33;35095;-75
2023/06/19 12:51:03;;;;;;;;;;;;;;;34.50;26.47;99125.09;4281301;33;35518;-75
2023/06/19 12:53:31;;;;;;;;;;;;;;;34.40;28.51;99123.59;4301377;33;34832;-77
2023/06/19 12:55:59;;;;;;;;;;;;;;;34.19;29.18;99117.75;4279377;33;34422;-79